createdAt,value
2018-10-07T00:00:23.776Z,6.67
2018-10-07T00:02:52.024Z,5.10
2018-10-07T00:05:20.400Z,6.67
2018-10-07T00:07:48.784Z,7.20
2018-10-07T00:10:17.041Z,4.80
2018-10-07T00:12:45.296Z,7.13
2018-10-07T00:15:13.505Z,5.03
2018-10-07T00:17:41.707Z,4.70
2018-10-07T00:20:09.903Z,6.13
2018-10-07T00:22:38.117Z,4.40
2018-10-07T00:25:06.327Z,6.80
2018-10-07T00:27:34.525Z,4.93
2018-10-07T00:30:02.733Z,6.63
2018-10-07T00:32:30.913Z,5.70
2018-10-07T00:34:59.087Z,8.97
2018-10-07T00:37:27.293Z,7.47
2018-10-07T00:39:55.465Z,4.80
2018-10-07T00:42:23.679Z,5.70
2018-10-07T00:44:51.862Z,6.60
2018-10-07T00:47:20.054Z,5.60
2018-10-07T00:49:48.244Z,5.40
2018-10-07T00:52:16.480Z,7.97
2018-10-07T00:54:44.683Z,9.27
2018-10-07T00:57:12.863Z,4.33
2018-10-07T00:59:41.065Z,4.80
2018-10-07T01:02:09.239Z,6.50
2018-10-07T01:04:37.431Z,6.60
2018-10-07T01:07:05.623Z,9.30
2018-10-07T01:09:33.839Z,6.00
2018-10-07T01:12:02.053Z,5.07
2018-10-07T01:14:30.237Z,5.00
2018-10-07T01:16:58.418Z,7.33
2018-10-07T01:19:26.622Z,5.87
2018-10-07T01:21:54.818Z,5.27
2018-10-07T01:24:23.002Z,7.87
2018-10-07T01:26:51.190Z,6.13
2018-10-07T01:29:19.382Z,7.47
2018-10-07T01:31:47.554Z,6.00
2018-10-07T01:34:15.758Z,4.03
2018-10-07T01:36:43.953Z,5.37
2018-10-07T01:39:12.555Z,6.03
2018-10-07T01:41:40.765Z,4.80
2018-10-07T01:44:08.946Z,7.23
2018-10-07T01:46:37.389Z,7.40
2018-10-07T01:49:05.846Z,5.67
2018-10-07T01:51:34.146Z,7.77
2018-10-07T01:54:02.338Z,13.93
2018-10-07T01:56:30.527Z,4.97
2018-10-07T01:58:58.740Z,6.80
2018-10-07T02:01:26.901Z,4.80
2018-10-07T02:03:55.095Z,5.13
2018-10-07T02:06:23.282Z,6.93
2018-10-07T02:08:51.484Z,9.70
2018-10-07T02:11:19.675Z,5.43
2018-10-07T02:13:47.912Z,12.10
2018-10-07T02:16:16.070Z,5.47
2018-10-07T02:18:44.230Z,6.90
2018-10-07T02:21:12.434Z,5.77
2018-10-07T02:23:40.616Z,7.00
2018-10-07T02:26:08.831Z,6.17
2018-10-07T02:28:37.006Z,7.70
2018-10-07T02:31:05.185Z,7.23
2018-10-07T02:33:33.389Z,5.47
2018-10-07T02:36:01.603Z,8.30
2018-10-07T02:38:29.809Z,9.30
2018-10-07T02:40:57.978Z,11.37
2018-10-07T02:43:26.198Z,4.80
2018-10-07T02:45:54.375Z,6.30
2018-10-07T02:48:22.555Z,8.43
2018-10-07T02:50:50.762Z,6.57
2018-10-07T02:53:19.002Z,6.40
2018-10-07T02:55:47.229Z,7.03
2018-10-07T02:58:15.421Z,6.93
2018-10-07T03:00:43.597Z,8.80
2018-10-07T03:03:11.863Z,6.50
2018-10-07T03:05:40.036Z,6.40
2018-10-07T03:08:08.231Z,7.43
2018-10-07T03:10:36.427Z,6.17
2018-10-07T03:13:04.676Z,6.17
2018-10-07T03:15:32.884Z,5.77
2018-10-07T03:18:01.059Z,13.07
2018-10-07T03:20:29.261Z,7.27
2018-10-07T03:22:57.507Z,8.40
2018-10-07T03:25:25.702Z,7.93
2018-10-07T03:27:53.890Z,5.10
2018-10-07T03:30:22.090Z,9.17
2018-10-07T03:32:50.357Z,9.20
2018-10-07T03:35:18.532Z,4.50
2018-10-07T03:37:46.759Z,12.20
2018-10-07T03:40:14.953Z,5.60
2018-10-07T03:42:43.208Z,6.90
2018-10-07T03:45:11.733Z,7.93
2018-10-07T03:47:39.901Z,11.23
2018-10-07T03:50:08.376Z,8.30
2018-10-07T03:52:36.566Z,10.40
2018-10-07T03:55:04.825Z,5.03
2018-10-07T03:57:33.021Z,6.43
2018-10-07T04:00:01.618Z,6.57
2018-10-07T04:02:29.826Z,7.23
2018-10-07T04:04:58.018Z,9.87
2018-10-07T04:07:26.190Z,6.00
2018-10-07T04:09:54.376Z,4.60
2018-10-07T04:12:22.574Z,6.40
2018-10-07T04:14:50.791Z,6.10
2018-10-07T04:17:18.961Z,4.80
2018-10-07T04:19:47.189Z,9.73
2018-10-07T04:22:15.410Z,20.00
2018-10-07T04:24:43.616Z,7.10
2018-10-07T04:27:11.812Z,7.03
2018-10-07T04:29:40.002Z,6.47
2018-10-07T04:32:08.215Z,11.40
2018-10-07T04:34:36.410Z,6.90
2018-10-07T04:37:04.618Z,7.30
2018-10-07T04:39:32.805Z,5.63
2018-10-07T04:42:00.999Z,6.87
2018-10-07T04:44:29.208Z,5.90
2018-10-07T04:46:57.393Z,7.77
2018-10-07T04:49:25.601Z,9.23
2018-10-07T04:51:53.788Z,10.63
2018-10-07T04:54:22.010Z,7.67
2018-10-07T04:56:50.211Z,5.73
2018-10-07T04:59:18.388Z,5.60
2018-10-07T05:01:46.575Z,5.40
2018-10-07T05:04:14.744Z,6.60
2018-10-07T05:06:42.940Z,7.70
2018-10-07T05:09:11.661Z,6.63
2018-10-07T05:11:41.385Z,5.50
2018-10-07T05:14:10.497Z,4.97
2018-10-07T05:16:47.061Z,6.20
2018-10-07T05:19:15.305Z,6.67
2018-10-07T05:21:43.720Z,5.67
2018-10-07T05:24:11.912Z,4.87
2018-10-07T05:27:10.724Z,11.40
2018-10-07T05:29:38.939Z,6.63
2018-10-07T05:32:07.142Z,5.30
2018-10-07T05:34:35.334Z,6.70
2018-10-07T05:37:03.553Z,6.87
2018-10-07T05:39:31.736Z,3.70
2018-10-07T05:41:59.928Z,5.83
2018-10-07T05:44:28.151Z,6.07
2018-10-07T05:46:56.284Z,6.73
2018-10-07T05:49:24.508Z,4.80
2018-10-07T05:51:52.695Z,5.40
2018-10-07T05:54:20.904Z,7.13
2018-10-07T05:56:49.098Z,7.53
2018-10-07T05:59:17.310Z,5.70
2018-10-07T06:01:46.320Z,5.50
2018-10-07T06:04:26.134Z,6.30
2018-10-07T06:06:55.327Z,4.07
2018-10-07T06:09:27.914Z,8.93
2018-10-07T06:11:56.443Z,5.33
2018-10-07T06:14:36.006Z,6.90
2018-10-07T06:17:04.478Z,11.10
2018-10-07T06:19:32.952Z,4.47
2018-10-07T06:22:02.682Z,9.30
2018-10-07T06:24:30.996Z,6.00
2018-10-07T06:26:59.186Z,9.47
2018-10-07T06:29:27.430Z,5.13
2018-10-07T06:31:55.644Z,5.63
2018-10-07T06:34:24.077Z,5.00
2018-10-07T06:36:52.402Z,5.10
2018-10-07T06:39:20.594Z,4.23
2018-10-07T06:41:49.143Z,5.27
2018-10-07T06:44:17.332Z,6.43
2018-10-07T06:46:45.543Z,7.47
2018-10-07T06:49:13.730Z,7.20
2018-10-07T06:51:41.992Z,5.77
2018-10-07T06:54:10.518Z,9.43
2018-10-07T06:56:38.720Z,5.93
2018-10-07T06:59:06.902Z,6.50
2018-10-07T07:01:35.112Z,8.23
2018-10-07T07:04:03.294Z,5.80
2018-10-07T07:06:31.564Z,6.40
2018-10-07T07:08:59.651Z,6.47
2018-10-07T07:11:27.855Z,5.60
2018-10-07T07:13:56.075Z,6.67
2018-10-07T07:16:24.295Z,6.00
2018-10-07T07:18:52.972Z,8.83
2018-10-07T07:21:21.984Z,6.33
2018-10-07T07:23:50.230Z,11.13
2018-10-07T07:26:18.411Z,4.90
2018-10-07T07:28:46.644Z,4.93
2018-10-07T07:31:14.986Z,6.27
2018-10-07T07:33:43.092Z,4.63
2018-10-07T07:36:11.319Z,9.20
2018-10-07T07:38:39.493Z,6.43
2018-10-07T07:41:07.753Z,6.40
2018-10-07T07:43:35.935Z,6.50
2018-10-07T07:46:04.177Z,4.20
2018-10-07T07:48:32.401Z,5.27
2018-10-07T07:51:00.596Z,7.80
2018-10-07T07:53:28.822Z,8.00
2018-10-07T07:55:57.040Z,5.30
2018-10-07T07:58:25.262Z,5.70
2018-10-07T08:00:53.441Z,7.97
2018-10-07T08:03:21.643Z,7.27
2018-10-07T08:05:49.847Z,8.70
2018-10-07T08:08:18.048Z,6.80
2018-10-07T08:10:46.245Z,9.07
2018-10-07T08:13:14.671Z,7.33
2018-10-07T08:15:42.949Z,5.40
2018-10-07T08:18:11.117Z,8.23
2018-10-07T08:20:39.347Z,7.50
2018-10-07T08:23:07.565Z,8.60
2018-10-07T08:25:35.757Z,6.57
2018-10-07T08:28:14.570Z,9.53
2018-10-07T08:30:44.095Z,7.80
2018-10-07T08:33:12.351Z,6.90
2018-10-07T08:35:40.660Z,11.53
2018-10-07T08:38:08.843Z,6.93
2018-10-07T08:40:37.045Z,9.83
2018-10-07T08:43:07.957Z,9.57
2018-10-07T08:45:36.152Z,8.03
2018-10-07T08:48:04.984Z,7.43
2018-10-07T08:50:33.997Z,13.77
2018-10-07T08:53:02.217Z,7.63
2018-10-07T08:55:30.458Z,7.40
2018-10-07T08:57:58.653Z,7.80
2018-10-07T09:00:26.877Z,7.40
2018-10-07T09:02:55.379Z,6.90
2018-10-07T09:05:23.583Z,6.50
2018-10-07T09:07:51.823Z,7.27
2018-10-07T09:10:20.047Z,10.10
2018-10-07T09:12:48.250Z,7.37
2018-10-07T09:15:16.477Z,8.77
2018-10-07T09:17:44.713Z,8.17
2018-10-07T09:20:12.919Z,8.53
2018-10-07T09:22:41.165Z,6.97
2018-10-07T09:25:09.346Z,8.85
2018-10-07T09:27:37.684Z,8.60
2018-10-07T09:30:06.349Z,7.57
2018-10-07T09:32:34.675Z,10.83
2018-10-07T09:35:02.789Z,7.60
2018-10-07T09:37:30.983Z,4.90
2018-10-07T09:39:59.173Z,7.03
2018-10-07T09:42:27.439Z,7.33
2018-10-07T09:44:55.659Z,8.77
2018-10-07T09:47:23.852Z,10.80
2018-10-07T09:49:52.364Z,9.20
2018-10-07T09:52:20.645Z,9.70
2018-10-07T09:54:48.800Z,8.73
2018-10-07T09:57:17.004Z,13.07
2018-10-07T09:59:45.215Z,10.47
2018-10-07T10:02:13.412Z,8.20
2018-10-07T10:04:41.691Z,11.13
2018-10-07T10:07:09.862Z,14.17
2018-10-07T10:09:38.003Z,12.93
2018-10-07T10:12:06.368Z,11.37
2018-10-07T10:14:34.569Z,13.50
2018-10-07T10:17:06.537Z,13.43
2018-10-07T10:19:42.061Z,10.60
2018-10-07T10:22:22.785Z,11.27
2018-10-07T10:25:00.343Z,11.80
2018-10-07T10:27:41.020Z,12.03
2018-10-07T10:30:15.868Z,11.53
2018-10-07T10:32:52.918Z,11.43
2018-10-07T10:35:37.973Z,15.80
2018-10-07T10:38:42.275Z,14.03
2018-10-07T10:41:18.159Z,13.50
2018-10-07T10:43:53.716Z,12.43
2018-10-07T10:46:31.401Z,12.23
2018-10-07T10:49:21.712Z,17.10
2018-10-07T10:51:57.733Z,13.70
2018-10-07T10:54:28.180Z,11.77
2018-10-07T10:57:09.164Z,15.13
2018-10-07T10:59:48.822Z,13.38
2018-10-07T11:02:32.993Z,11.07
2018-10-07T11:05:26.556Z,15.50
2018-10-07T11:10:07.088Z,13.80
2018-10-07T11:12:44.323Z,14.13
2018-10-07T11:15:25.466Z,17.53
2018-10-07T11:18:35.207Z,16.80
2018-10-07T11:21:18.204Z,12.40
2018-10-07T11:24:04.685Z,14.67
2018-10-07T11:26:45.229Z,13.07
2018-10-07T11:31:29.474Z,11.70
2018-10-07T11:34:09.092Z,15.55
2018-10-07T11:39:23.592Z,17.53
2018-10-07T11:42:03.180Z,12.07
2018-10-07T11:44:39.258Z,11.03
2018-10-07T11:47:25.164Z,12.53
2018-10-07T11:50:01.742Z,14.80
2018-10-07T11:52:56.246Z,16.13
2018-10-07T11:55:24.606Z,14.17
2018-10-07T11:57:52.848Z,15.50
2018-10-07T12:00:21.110Z,13.90
2018-10-07T12:02:49.444Z,14.37
2018-10-07T12:05:17.532Z,13.80
2018-10-07T12:07:45.762Z,16.77
2018-10-07T12:10:14.067Z,15.47
2018-10-07T12:12:42.202Z,13.07
2018-10-07T12:15:10.350Z,16.47
2018-10-07T12:17:38.560Z,11.50
2018-10-07T12:20:06.760Z,15.73
2018-10-07T12:22:34.951Z,17.90
2018-10-07T12:25:03.212Z,17.77
2018-10-07T12:27:31.422Z,18.10
2018-10-07T12:29:59.642Z,18.13
2018-10-07T12:32:27.814Z,15.27
2018-10-07T12:34:56.018Z,17.93
2018-10-07T12:37:24.207Z,13.53
2018-10-07T12:39:52.404Z,10.83
2018-10-07T12:42:20.598Z,15.00
2018-10-07T12:44:48.776Z,12.87
2018-10-07T12:47:17.020Z,13.50
2018-10-07T12:49:45.233Z,23.20
2018-10-07T12:52:13.441Z,11.80
2018-10-07T12:54:41.654Z,14.20
2018-10-07T12:57:09.834Z,12.47
2018-10-07T12:59:38.033Z,8.50
2018-10-07T13:02:06.262Z,6.90
2018-10-07T13:04:34.477Z,17.50
2018-10-07T13:07:02.685Z,12.27
2018-10-07T13:09:30.926Z,9.17
2018-10-07T13:11:59.060Z,8.97
2018-10-07T13:14:27.266Z,9.13
2018-10-07T13:16:55.458Z,6.53
2018-10-07T13:19:23.680Z,10.90
2018-10-07T13:21:51.850Z,17.70
2018-10-07T13:24:20.035Z,18.87
2018-10-07T13:26:48.214Z,11.53
2018-10-07T13:29:16.410Z,11.60
2018-10-07T13:31:44.584Z,9.80
2018-10-07T13:34:12.772Z,10.67
2018-10-07T13:36:40.954Z,12.27
2018-10-07T13:39:10.542Z,11.10
2018-10-07T13:41:39.038Z,8.50
2018-10-07T13:44:07.295Z,11.50
2018-10-07T13:46:35.498Z,8.30
2018-10-07T13:49:03.760Z,11.57
2018-10-07T13:51:32.002Z,8.40
2018-10-07T13:54:00.188Z,11.23
2018-10-07T13:56:28.618Z,10.20
2018-10-07T13:58:56.822Z,9.20
2018-10-07T14:01:25.293Z,9.50
2018-10-07T14:03:53.551Z,6.00
2018-10-07T14:06:21.673Z,5.63
2018-10-07T14:08:50.188Z,4.87
2018-10-07T14:11:18.416Z,4.23
2018-10-07T14:13:46.628Z,3.07
2018-10-07T14:16:14.819Z,3.27
2018-10-07T14:18:42.994Z,3.23
2018-10-07T14:21:11.206Z,5.77
2018-10-07T14:23:39.419Z,3.23
2018-10-07T14:26:07.603Z,4.03
2018-10-07T14:28:35.852Z,3.27
2018-10-07T14:31:04.119Z,3.67
2018-10-07T14:33:32.371Z,3.47
2018-10-07T14:36:00.609Z,4.63
2018-10-07T14:38:28.795Z,2.73
2018-10-07T14:40:57.071Z,3.30
2018-10-07T14:43:25.237Z,4.50
2018-10-07T14:45:53.450Z,3.47
2018-10-07T14:48:21.647Z,4.40
2018-10-07T14:50:49.834Z,3.63
2018-10-07T14:53:18.082Z,2.80
2018-10-07T14:55:46.321Z,4.35
2018-10-07T14:58:14.806Z,4.27
2018-10-07T15:00:43.023Z,4.13
2018-10-07T15:03:11.249Z,6.03
2018-10-07T15:05:39.531Z,3.00
2018-10-07T15:08:07.738Z,9.15
2018-10-07T15:10:35.945Z,3.60
2018-10-07T15:13:04.203Z,3.17
2018-10-07T15:15:32.505Z,4.30
2018-10-07T15:18:00.692Z,4.00
2018-10-07T15:20:28.933Z,4.80
2018-10-07T15:22:57.182Z,3.63
2018-10-07T15:25:25.385Z,5.00
2018-10-07T15:27:53.595Z,3.17
2018-10-07T15:30:21.774Z,3.00
2018-10-07T15:32:50.871Z,3.60
2018-10-07T15:35:19.062Z,4.83
2018-10-07T15:37:47.327Z,4.73
2018-10-07T15:40:15.527Z,5.50
2018-10-07T15:42:43.773Z,3.13
2018-10-07T15:45:11.973Z,3.90
2018-10-07T15:47:40.222Z,3.70
2018-10-07T15:50:08.361Z,3.53
2018-10-07T15:52:36.647Z,4.03
2018-10-07T15:55:04.845Z,3.40
2018-10-07T15:57:33.019Z,4.20
2018-10-07T16:00:01.224Z,4.13
2018-10-07T16:02:29.405Z,4.63
2018-10-07T16:04:57.579Z,3.47
2018-10-07T16:07:25.859Z,4.97
2018-10-07T16:09:54.125Z,5.60
2018-10-07T16:12:22.307Z,7.27
2018-10-07T16:14:50.563Z,3.90
2018-10-07T16:17:18.775Z,4.77
2018-10-07T16:19:46.987Z,4.53
2018-10-07T16:22:15.185Z,5.23
2018-10-07T16:24:43.408Z,3.10
2018-10-07T16:27:11.708Z,5.40
2018-10-07T16:29:39.918Z,5.10
2018-10-07T16:32:08.130Z,4.53
2018-10-07T16:34:42.972Z,4.27
2018-10-07T16:37:11.165Z,5.13
2018-10-07T16:39:39.367Z,4.37
2018-10-07T16:42:07.540Z,4.23
2018-10-07T16:44:35.754Z,5.10
2018-10-07T16:47:03.994Z,4.50
2018-10-07T16:49:32.172Z,4.23
2018-10-07T16:52:00.356Z,4.60
2018-10-07T16:54:28.530Z,3.50
2018-10-07T16:59:23.760Z,3.60
2018-10-07T17:01:51.934Z,4.50
2018-10-07T17:04:20.150Z,3.50
2018-10-07T17:06:48.359Z,3.97
2018-10-07T17:09:16.533Z,3.43
2018-10-07T17:11:44.734Z,4.07
2018-10-07T17:14:13.290Z,4.87
2018-10-07T17:16:41.496Z,4.23
2018-10-07T17:19:09.680Z,4.90
2018-10-07T17:21:37.900Z,3.50
2018-10-07T17:24:06.104Z,3.70
2018-10-07T17:26:34.649Z,5.00
2018-10-07T17:29:02.880Z,3.90
2018-10-07T17:31:31.070Z,3.30
2018-10-07T17:33:59.281Z,2.87
2018-10-07T17:36:27.454Z,3.17
2018-10-07T17:38:55.688Z,3.67
2018-10-07T17:41:23.889Z,4.00
2018-10-07T17:43:52.065Z,3.40
2018-10-07T17:46:20.269Z,3.33
2018-10-07T17:48:48.557Z,3.80
2018-10-07T17:51:16.682Z,3.23
2018-10-07T17:53:45.108Z,3.87
2018-10-07T17:56:13.354Z,3.83
2018-10-07T17:58:41.567Z,3.33
2018-10-07T18:01:09.776Z,2.80
2018-10-07T18:03:37.994Z,6.37
2018-10-07T18:06:06.190Z,6.50
2018-10-07T18:08:34.504Z,4.67
2018-10-07T18:11:02.718Z,4.10
2018-10-07T18:13:30.906Z,3.87
2018-10-07T18:15:59.106Z,3.57
2018-10-07T18:18:27.292Z,2.90
2018-10-07T18:20:55.500Z,3.27
2018-10-07T18:23:23.708Z,4.60
2018-10-07T18:25:51.917Z,9.43
2018-10-07T18:28:20.110Z,2.63
2018-10-07T18:30:48.297Z,9.03
2018-10-07T18:33:16.514Z,4.47
2018-10-07T18:35:44.702Z,3.80
2018-10-07T18:38:12.910Z,6.93
2018-10-07T18:40:41.114Z,3.77
2018-10-07T18:43:09.459Z,3.43
2018-10-07T18:45:37.603Z,3.33
2018-10-07T18:48:05.796Z,3.20
2018-10-07T18:50:34.003Z,3.50
2018-10-07T18:53:02.572Z,3.67
2018-10-07T18:55:30.782Z,4.50
2018-10-07T18:57:58.970Z,3.73
2018-10-07T19:00:27.706Z,3.93
2018-10-07T19:02:56.189Z,7.27
2018-10-07T19:05:24.189Z,4.47
2018-10-07T19:07:52.722Z,3.23
2018-10-07T19:10:20.923Z,5.50
2018-10-07T19:12:49.168Z,3.20
2018-10-07T19:15:17.361Z,3.10
2018-10-07T19:17:45.577Z,4.17
2018-10-07T19:20:13.791Z,3.43
2018-10-07T19:22:42.033Z,3.20
2018-10-07T19:25:10.239Z,6.10
2018-10-07T19:27:38.422Z,4.23
2018-10-07T19:30:07.033Z,2.60
2018-10-07T19:32:35.235Z,3.27
2018-10-07T19:35:03.431Z,3.17
2018-10-07T19:37:31.720Z,3.73
2018-10-07T19:39:59.861Z,3.10
2018-10-07T19:42:28.059Z,2.50
2018-10-07T19:44:56.300Z,5.50
2018-10-07T19:47:24.496Z,3.43
2018-10-07T19:49:52.699Z,4.27
2018-10-07T19:52:20.965Z,5.00
2018-10-07T19:54:49.103Z,4.10
2018-10-07T19:57:17.306Z,3.50
2018-10-07T19:59:45.534Z,4.10
2018-10-07T20:02:13.705Z,4.20
2018-10-07T20:04:41.909Z,5.37
2018-10-07T20:07:10.103Z,4.57
2018-10-07T20:09:38.283Z,11.03
2018-10-07T20:12:06.751Z,3.13
2018-10-07T20:14:34.938Z,3.43
2018-10-07T20:17:03.112Z,4.40
2018-10-07T20:19:31.385Z,3.60
2018-10-07T20:21:59.491Z,5.43
2018-10-07T20:24:27.682Z,8.83
2018-10-07T20:26:55.857Z,5.20
2018-10-07T20:29:24.046Z,13.77
2018-10-07T20:31:52.225Z,3.73
2018-10-07T20:34:20.445Z,3.43
2018-10-07T20:36:48.652Z,5.90
2018-10-07T20:39:16.883Z,5.37
2018-10-07T20:41:45.096Z,6.57
2018-10-07T20:44:13.298Z,5.10
2018-10-07T20:46:41.489Z,4.00
2018-10-07T20:49:09.673Z,4.37
2018-10-07T20:51:37.897Z,3.43
2018-10-07T20:54:06.398Z,3.60
2018-10-07T20:56:34.632Z,3.03
2018-10-07T20:59:02.793Z,4.07
2018-10-07T21:01:30.993Z,3.80
2018-10-07T21:03:59.226Z,3.80
2018-10-07T21:06:27.475Z,3.30
2018-10-07T21:08:55.692Z,3.13
2018-10-07T21:11:23.928Z,4.03
2018-10-07T21:13:52.123Z,4.20
2018-10-07T21:16:20.351Z,2.83
2018-10-07T21:18:48.528Z,5.33
2018-10-07T21:21:16.727Z,2.60
2018-10-07T21:23:44.928Z,5.30
2018-10-07T21:26:13.158Z,4.80
2018-10-07T21:28:41.345Z,11.90
2018-10-07T21:31:09.915Z,3.00
2018-10-07T21:33:38.167Z,4.03
2018-10-07T21:36:06.380Z,3.93
2018-10-07T21:38:35.289Z,3.27
2018-10-07T21:41:03.487Z,4.30
2018-10-07T21:43:31.682Z,2.90
2018-10-07T21:45:59.903Z,4.30
2018-10-07T21:48:28.088Z,2.90
2018-10-07T21:50:56.290Z,3.17
2018-10-07T21:53:24.524Z,3.93
2018-10-07T21:55:52.770Z,4.47
2018-10-07T21:58:20.934Z,2.90
2018-10-07T22:00:49.156Z,4.13
2018-10-07T22:03:17.448Z,4.60
2018-10-07T22:05:45.856Z,4.47
2018-10-07T22:08:14.116Z,3.20
2018-10-07T22:14:12.991Z,5.57
2018-10-07T22:16:41.203Z,4.53
2018-10-07T22:19:09.431Z,6.37
2018-10-07T22:21:37.602Z,5.17
2018-10-07T22:24:06.509Z,4.37
2018-10-07T22:26:34.707Z,4.27
2018-10-07T22:29:02.901Z,3.77
2018-10-07T22:31:37.489Z,3.60
2018-10-07T22:34:05.677Z,3.47
2018-10-07T22:36:33.888Z,3.03
2018-10-07T22:39:02.076Z,7.93
2018-10-07T22:41:30.273Z,3.43
2018-10-07T22:43:58.455Z,3.53
2018-10-07T22:46:26.648Z,4.37
2018-10-07T22:48:54.842Z,4.83
2018-10-07T22:51:23.016Z,4.30
2018-10-07T22:53:51.213Z,4.77
2018-10-07T22:56:19.679Z,4.97
2018-10-07T22:58:47.894Z,5.83
2018-10-07T23:01:16.114Z,6.73
2018-10-07T23:03:44.275Z,6.03
2018-10-07T23:06:12.488Z,7.77
2018-10-07T23:08:40.686Z,5.60
2018-10-07T23:11:08.896Z,5.27
2018-10-07T23:13:37.098Z,5.70
2018-10-07T23:16:05.296Z,4.30
2018-10-07T23:18:33.501Z,8.27
2018-10-07T23:21:01.861Z,5.60
2018-10-07T23:23:30.065Z,6.87
2018-10-07T23:25:58.264Z,4.90
2018-10-07T23:28:26.442Z,8.53
2018-10-07T23:30:54.668Z,6.07
2018-10-07T23:33:22.851Z,6.37
2018-10-07T23:35:51.770Z,9.10
2018-10-07T23:38:19.952Z,5.17
2018-10-07T23:40:50.157Z,6.30
2018-10-07T23:43:18.369Z,5.67
2018-10-07T23:45:46.642Z,7.07
2018-10-07T23:48:14.784Z,11.00
2018-10-07T23:50:42.983Z,4.57
2018-10-07T23:53:11.186Z,4.40
2018-10-07T23:55:39.380Z,4.80
2018-10-07T23:58:07.535Z,3.80
